Tiempo atmosférico en la estación meteorológica de Valdemorillo, Madrid (884 m.)



Fecha
DESCASC
Temp. máxima en grados centígrados (hora)
DESCASC
Temp. mínima en grados centígrados (hora)
DESCASC
Temp. media en grados centígrados
DESCASC
Racha de viento máxima en m/sg (hora)
DESCASC
Velocidad máxima media en intervalos de 10 minutos(hora)
DESCASC
Precipitaciones diarias en mm
DESCASC
Precipitaciones de 00:00 a 06:00 en mm
DESCASC
Precipitaciones de 06:00 a 12:00 en mm
DESCASC
Precipitaciones de 12:00 a 18:00 en mm
DESCASC
Precipitaciones de 18:00 a 24:00 en mm
DESCASC
19-09-2019 28.1 (16:40) 16.1 (08:30) 22.1 6.67 (15:20) 3.89 (16:30) 0 0 0 0 0
18-09-2019 27.4 (16:30) 15.4 (08:10) 21.4 8.89 (20:00) 4.72 (20:00) 0 0 0 0 0
17-09-2019 27.8 (17:10) 15.6 (00:00) 21.7 13.61 (19:30) 6.39 (19:30) 0 0 0 0 0
16-09-2019 24.2 (15:30) 15.6 (00:00) 19.9 6.39 (17:10) 3.89 (17:10) 1 0 0.2 0.8 0
15-09-2019 21.6 (16:00) 15.3 (00:00) 18.5 6.94 (07:00) 4.17 (07:00) 5 2.8 1.2 1 0
14-09-2019 20.2 (12:10) 15.6 (00:00) 17.9 8.33 (09:50) 4.72 (09:50) 4.6 0 0 4 0.6
13-09-2019 22 (11:20) 14.4 (00:00) 18.2 14.44 (09:50) 8.06 (09:50) 4 0 0 4 0
12-09-2019 27.4 (16:10) 14 (00:00) 20.7 13.61 (09:20) 7.5 (10:20) 0 0 0 0 0
11-09-2019 26.1 (16:50) 12.3 (00:00) 19.2 14.17 (06:40) 8.33 (06:30) 0 0 0 0 0
10-09-2019 21.2 (00:00) 12.4 (20:50) 16.8 13.89 (02:00) 7.22 (13:50) 0 0 0 0 0
09-09-2019 29.2 (16:20) 15.1 (08:10) 22.2 10.83 (15:40) 6.11 (16:00) 0 0 0 0 0
08-09-2019 28.3 (16:20) 16.7 (00:00) 22.5 9.17 (00:10) 4.72 (00:10) 0 0 0 0 0
07-09-2019 27.5 (17:20) 14.2 (00:00) 20.8 9.17 (03:10) 5.56 (23:40) 0 0 0 0 0
06-09-2019 26 (17:20) 9.6 (00:00) 17.8 7.78 (12:10) 3.89 (12:20) 0 0 0 0 0
05-09-2019 28.1 (17:10) 15.4 (00:00) 21.8 9.17 (23:20) 4.72 (20:50) 0 0 0 0 0
04-09-2019 33.1 (17:10) 18.6 (00:00) 25.8 8.33 (22:50) 4.72 (22:50) 0 0 0 0 0
03-09-2019 32.2 (16:20) 17.9 (00:00) 25.1 9.17 (18:20) 4.72 (02:50) 0 0 0 0 0
02-09-2019 30.2 (16:40) 18.5 (00:00) 24.4 11.39 (01:20) 5.83 (01:20) 0 0 0 0 0
01-09-2019 32.8 (14:50) 20.6 (00:00) 26.7 10 (15:00) 5.28 (15:00) 0 0 0 0 0
31-08-2019 31.9 (15:50) 17.8 (00:00) 24.8 7.78 (16:50) 4.44 (18:40) 0 0 0 0 0
30-08-2019 33 (16:10) 19.4 (00:00) 26.2 11.94 (17:30) 6.39 (19:10) 0 0 0 0 0
29-08-2019 32.6 (17:20) 18.6 (00:00) 25.6 11.11 (14:50) 3.89 (14:50) 0 0 0 0 0
28-08-2019 30.6 (17:30) 16.1 (00:00) 23.4 7.5 (16:40) 3.89 (17:40) 0 0 0 0 0
27-08-2019 26.5 (19:20) 14.3 (00:00) 20.4 6.11 (11:50) 3.61 (04:30) 0 0 0 0 0
26-08-2019 27.3 (17:00) 16.2 (00:00) 21.8 10 (17:20) 5 (17:20) 5.4 0.6 3 0 1.8
25-08-2019 31.9 (16:20) 20 (00:00) 25.9 10.28 (21:00) 5 (21:10) 0.4 0 0 0 0.4
24-08-2019 33.2 (17:50) 18.2 (00:00) 25.7 6.94 (14:50) 3.89 (17:20) 0 0 0 0 0
23-08-2019 31.7 (17:40) 18.2 (00:00) 25 6.94 (18:00) 3.61 (18:10) 0 0 0 0 0

Gráficas

Temp. máximas Temp. mínimas Temp. medias Precipitaciones Rachas de viento máximas Velocidades máximas media en intervalos de 10 minutos

Datos horarios

Fecha y hora oficial Temperatura (ºC) Velocidad del viento (km/h) Dirección del viento Racha (km/h) Dirección de racha Precipitación (mm) Presión (hPa) Tendencia (hPa) Humedad (%)
2019-09-21 23:00:00 15.4 6 Sudoeste 14 Sudoeste 0 -- -- 89
2019-09-21 22:00:00 15.4 8 Sudoeste 14 Sudoeste 0 -- -- 87
2019-09-21 21:00:00 15.5 8 Oeste 18 Sudoeste 0 -- -- 89
2019-09-21 20:00:00 16 7 Oeste 15 Oeste 0.2 -- -- 92
2019-09-21 19:00:00 16.4 5 Oeste 10 Oeste 0.4 -- -- 93
2019-09-21 18:00:00 16.9 5 Oeste 12 Sudoeste 1.2 -- -- 89
2019-09-21 17:00:00 17.9 9 Sudoeste 19 Sur 0 -- -- 79
2019-09-21 16:00:00 18.4 9 Sudoeste 19 Sudoeste 0 -- -- 75
2019-09-21 15:00:00 17.7 8 Sudoeste 19 Sudoeste 0.2 -- -- 81
2019-09-21 14:00:00 18.2 11 Sudoeste 22 Sudoeste 0 -- -- 72
2019-09-21 13:00:00 18.3 10 Sudoeste 20 Sudoeste 0 -- -- 69
2019-09-21 12:00:00 17.8 5 Sudoeste 17 Sur 0 -- -- 73
2019-09-21 11:00:00 17 5 Sur 13 Sur 0 -- -- 78
2019-09-21 10:00:00 16.4 4 Sur 9 Este 0 -- -- 87
2019-09-21 09:00:00 14.7 4 Este 8 Este 0 -- -- 95
2019-09-21 08:00:00 14.1 4 Este 7 Este 0 -- -- 93
2019-09-21 07:00:00 14.4 5 Este 11 Este 0 -- -- 93
2019-09-21 06:00:00 14.6 7 Sudeste 10 Sudeste 0 -- -- 93
2019-09-21 05:00:00 14.9 3 Este 7 Este 0 -- -- 89
2019-09-21 04:00:00 15.3 5 Este 13 Sudeste 0 -- -- 87
2019-09-21 03:00:00 15.7 8 Sudeste 16 Sudeste 0 -- -- 86
2019-09-21 02:00:00 16.8 6 Este 12 Este 0 -- -- 83
2019-09-21 01:00:00 17.1 3 Este 6 Sudeste 0 -- -- 82
2019-09-21 00:00:00 17.7 0 Calma 11 Sur 0 -- -- 78
2019-09-20 23:00:00 17.8 5 Sudeste 18 Sur 0 -- -- 75
2019-09-20 22:00:00 18 9 Sur 37 Sudoeste 0 -- -- 79
2019-09-20 21:00:00 19.3 6 Nordeste 13 Norte 0 -- -- 76
2019-09-20 20:00:00 21.2 12 Sur 31 Sur 0.2 -- -- 65
2019-09-20 19:00:00 20.9 9 Sudeste 27 Sudeste 1.2 -- -- 70
2019-09-20 18:00:00 23.5 12 Sudeste 26 Este 0 -- -- 55
2019-09-20 17:00:00 23.7 10 Sudeste 24 Sudeste 0 -- -- 56
2019-09-20 16:00:00 23.5 11 Sudeste 25 Sudeste 0 -- -- 58
2019-09-20 15:00:00 22.9 10 Este 22 Este 0 -- -- 59
2019-09-20 14:00:00 21.2 11 Sudeste 22 Este 0 -- -- 66
2019-09-20 13:00:00 20.8 10 Sudeste 20 Sudeste 0 -- -- 67
2019-09-20 12:00:00 20 7 Sudeste 19 Este 0 -- -- 69
2019-09-20 11:00:00 18.9 8 Este 24 Este 0 -- -- 73
2019-09-20 10:00:00 18.6 8 Este 22 Este 0 -- -- 72
2019-09-20 09:00:00 17.7 7 Este 18 Este 0 -- -- 75
2019-09-20 08:00:00 17.7 7 Este 18 Este 0 -- -- 74
2019-09-20 07:00:00 18 4 Este 13 Este 0 -- -- 73
2019-09-20 06:00:00 17.9 5 Nordeste 13 Este 0 -- -- 73
2019-09-20 05:00:00 17.9 5 Nordeste 13 Nordeste 0 -- -- 75
2019-09-20 04:00:00 18.2 9 Nordeste 14 Nordeste 0 -- -- 72
2019-09-20 03:00:00 18.8 5 Nordeste 14 Nordeste 0 -- -- 70
2019-09-20 02:00:00 20.3 8 Este 19 Este 0 -- -- 62
2019-09-20 01:00:00 20.1 8 Nordeste 15 Nordeste 0 -- -- 59
2019-09-20 00:00:00 19.9 5 Este 12 Nordeste 0 -- -- 58
2019-09-19 23:00:00 20.4 6 Nordeste 10 Nordeste 0 -- -- 61
2019-09-19 22:00:00 21.6 5 Nordeste 10 Sudeste 0 -- -- 53
2019-09-19 21:00:00 23.4 5 Este 11 Sudeste 0 -- -- 47
2019-09-19 20:00:00 25.2 6 Sur 14 Sur 0 -- -- 39
2019-09-19 19:00:00 26.8 9 Sur 15 Sudoeste 0 -- -- 35
2019-09-19 18:00:00 26.3 8 Sur 20 Sur 0 -- -- 37
2019-09-19 17:00:00 27.5 10 Sudoeste 22 Sudoeste 0 -- -- 38
2019-09-19 16:00:00 26.6 10 Sur 24 Sur 0 -- -- 40
2019-09-19 15:00:00 26.5 13 Sur 23 Sudoeste 0 -- -- 42
2019-09-19 14:00:00 26.4 8 Sur 17 Sudeste 0 -- -- 43
2019-09-19 13:00:00 24.8 8 Sur 15 Sudeste 0 -- -- 47
2019-09-19 12:00:00 23 5 Este 14 Este 0 -- -- 51
2019-09-19 11:00:00 21.4 8 Este 19 Nordeste 0 -- -- 55
2019-09-19 10:00:00 19.9 8 Este 15 Este 0 -- -- 57
2019-09-19 09:00:00 16.9 6 Nordeste 14 Nordeste 0 -- -- 66
2019-09-19 08:00:00 16.5 9 Nordeste 15 Nordeste 0 -- -- 67
2019-09-19 07:00:00 16.5 8 Nordeste 15 Nordeste 0 -- -- 66
2019-09-19 06:00:00 16.8 8 Nordeste 14 Nordeste 0 -- -- 65
2019-09-19 05:00:00 16.7 8 Nordeste 15 Nordeste 0 -- -- 64
2019-09-19 04:00:00 17.3 10 Nordeste 17 Nordeste 0 -- -- 60
2019-09-19 03:00:00 17.5 8 Nordeste 14 Nordeste 0 -- -- 61
2019-09-19 02:00:00 18.2 9 Nordeste 16 Nordeste 0 -- -- 59
2019-09-19 01:00:00 19 8 Nordeste 20 Nordeste 0 -- -- 56
2019-09-19 00:00:00 20.3 12 Norte 19 Norte 0 -- -- 51
2019-09-18 23:00:00 20.6 9 Norte 16 Nordeste 0 -- -- 49
2019-09-18 22:00:00 19.7 0 Calma 10 Noroeste 0 -- -- 54
2019-09-18 21:00:00 20.8 8 Noroeste 28 Noroeste 0 -- -- 50
2019-09-18 20:00:00 21.5 17 Oeste 32 Oeste 0 -- -- 52
2019-09-18 19:00:00 24.5 10 Oeste 20 Oeste 0 -- -- 45
2019-09-18 18:00:00 25.9 9 Sudoeste 19 Sudeste 0 -- -- 39
2019-09-18 17:00:00 26.6 9 Sur 22 Sudoeste 0 -- -- 37
2019-09-18 16:00:00 26.9 8 Sur 19 Sudeste 0 -- -- 38
2019-09-18 15:00:00 26.4 8 Sur 22 Sudoeste 0 -- -- 40
2019-09-18 14:00:00 24.8 7 Sur 17 Sur 0 -- -- 46
2019-09-18 13:00:00 23.2 5 Sur 13 Sur 0 -- -- 51
2019-09-18 12:00:00 21.2 6 Sudeste 12 Este 0 -- -- 56
2019-09-18 11:00:00 19.4 4 Sur 9 Sudeste 0 -- -- 63
2019-09-18 10:00:00 16.9 3 Nordeste 6 Este 0 -- -- 72
2019-09-18 09:00:00 15.7 0 Calma 8 Este 0 -- -- 74
2019-09-18 08:00:00 15.5 4 Este 9 Nordeste 0 -- -- 74
2019-09-18 07:00:00 15.8 6 Nordeste 13 Nordeste 0 -- -- 72
2019-09-18 06:00:00 15.9 9 Nordeste 15 Nordeste 0 -- -- 71
2019-09-18 05:00:00 16.1 9 Nordeste 18 Nordeste 0 -- -- 71
2019-09-18 04:00:00 16.3 6 Nordeste 17 Nordeste 0 -- -- 73
2019-09-18 03:00:00 16.3 9 Nordeste 23 Nordeste 0 -- -- 69
2019-09-18 02:00:00 16 7 Nordeste 12 Nordeste 0 -- -- 69
2019-09-18 01:00:00 16.3 8 Sudoeste 16 Sudoeste 0 -- -- 66
2019-09-18 00:00:00 17.1 4 Oeste 18 Oeste 0 -- -- 63
2019-09-17 23:00:00 18.1 6 Nordeste 26 Nordeste 0 -- -- 63
2019-09-17 22:00:00 19.3 9 Norte 26 Norte 0 -- -- 55
2019-09-17 21:00:00 19.3 11 Oeste 31 Noroeste 0 -- -- 56
2019-09-15 18:00:00 21.1 7 Sudeste 15 Sudeste 0 -- -- 65
2019-09-15 17:00:00 21.3 6 Este 18 Este 0 -- -- 63
2019-09-15 16:00:00 21.6 9 Nordeste 16 Este 0 -- -- 73
2019-09-15 15:00:00 18.7 8 Nordeste 16 Norte 0.2 -- -- 85
2019-09-15 14:00:00 17 8 Nordeste 13 Nordeste 0.2 -- -- 91
2019-09-15 13:00:00 17.8 7 Este 20 Este 0.6 -- -- 85
2019-09-15 12:00:00 18.6 11 Este 21 Nordeste 0 -- -- 79
2019-09-15 11:00:00 17.1 8 Nordeste 20 Nordeste 0 -- -- 83
2019-09-15 10:00:00 16.1 7 Nordeste 19 Este 0 -- -- 89
2019-09-15 09:00:00 15.6 3 Nordeste 16 Nordeste 0.2 -- -- 91
2019-09-15 08:00:00 15.4 10 Nordeste 22 Nordeste 0.2 -- -- 90
2019-09-15 07:00:00 15.3 15 Nordeste 25 Nordeste 0.8 -- -- 91
2019-09-15 06:00:00 15.5 10 Nordeste 21 Nordeste 1.6 -- -- 88
2019-09-15 05:00:00 16.3 4 Este 14 Nordeste 1.2 -- -- 85
2019-09-15 04:00:00 17.2 8 Nordeste 16 Nordeste 0 -- -- 80
2019-09-15 03:00:00 17.5 4 Este 13 Este 0 -- -- 77
2019-09-15 02:00:00 17.4 5 Nordeste 16 Nordeste 0 -- -- 78
2019-09-15 01:00:00 17.2 8 Nordeste 18 Nordeste 0 -- -- 77
2019-09-15 00:00:00 16.4 9 Nordeste 21 Nordeste 0 -- -- 81
2019-09-14 23:00:00 15.7 12 Nordeste 21 Nordeste 0 -- -- 88
2019-09-14 22:00:00 15.9 8 Norte 17 Norte 0.2 -- -- 84
2019-09-14 21:00:00 16 3 Noroeste 19 Nordeste 0.2 -- -- 86
2019-09-14 20:00:00 16.5 9 Nordeste 22 Nordeste 0.2 -- -- 86
2019-09-14 19:00:00 16.8 11 Este 23 Este 0 -- -- 82
2019-09-14 18:00:00 16.6 13 Nordeste 29 Nordeste 0.2 -- -- 87
2019-09-14 17:00:00 16.5 10 Este 23 Sudeste 1.2 -- -- 91
2019-09-14 16:00:00 17.4 12 Sudeste 27 Este 0.2 -- -- 83
2019-09-14 15:00:00 17.1 13 Nordeste 23 Nordeste 0.8 -- -- 85
2019-09-14 14:00:00 16.6 6 Este 24 Sudeste 1.6 -- -- 85
2019-09-14 13:00:00 19.4 12 Sudeste 23 Este 0 -- -- 62
2019-09-14 12:00:00 19.9 10 Este 24 Este 0 -- -- 59
2019-09-14 11:00:00 18.3 13 Este 27 Nordeste 0 -- -- 64
2019-09-14 10:00:00 17.7 14 Este 30 Nordeste 0 -- -- 66
2019-09-14 09:00:00 16.8 13 Nordeste 27 Nordeste 0 -- -- 70
2019-09-14 08:00:00 16.7 10 Nordeste 24 Este 0 -- -- 74
2019-09-14 07:00:00 17.3 12 Nordeste 21 Nordeste 0 -- -- 72
2019-09-14 06:00:00 16.6 9 Nordeste 14 Nordeste 0 -- -- 78
2019-09-14 05:00:00 16.6 8 Nordeste 16 Nordeste 0 -- -- 76
2019-09-14 04:00:00 16.5 10 Nordeste 18 Norte 0 -- -- 78
2019-09-14 03:00:00 17 8 Nordeste 18 Este 0 -- -- 76
2019-09-14 02:00:00 17.5 7 Este 28 Este 0 -- -- 73
2019-09-14 01:00:00 17.9 13 Este 29 Este 0 -- -- 72
2019-09-14 00:00:00 17.9 12 Este 29 Nordeste 0 -- -- 72
2019-09-13 23:00:00 18.1 15 Nordeste 34 Nordeste 0 -- -- 71
2019-09-13 22:00:00 17.7 10 Nordeste 23 Nordeste 0 -- -- 74
2019-09-13 21:00:00 17.3 12 Nordeste 26 Nordeste 0 -- -- 76
2019-09-13 20:00:00 17.2 13 Nordeste 28 Nordeste 0 -- -- 75
2019-09-13 19:00:00 17 15 Nordeste 36 Nordeste 0 -- -- 74
2019-09-13 18:00:00 17.4 21 Nordeste 39 Nordeste 0 -- -- 74
2019-09-13 17:00:00 16.1 18 Nordeste 36 Nordeste 0.2 -- -- 83
2019-09-13 16:00:00 14.4 17 Nordeste 33 Este 1.6 -- -- 91
2019-09-13 15:00:00 15.2 9 Este 29 Este 2 -- -- 88
2019-09-13 14:00:00 17.8 18 Sudeste 41 Este 0.2 -- -- 64
2019-09-13 13:00:00 21.2 20 Nordeste 39 Este 0 -- -- 43
2019-09-13 12:00:00 21.9 16 Este 40 Este 0 -- -- 43
2019-09-13 11:00:00 21.6 23 Nordeste 50 Nordeste 0 -- -- 42
2019-09-13 10:00:00 21.5 28 Nordeste 52 Nordeste 0 -- -- 43
2019-09-13 09:00:00 20.3 25 Nordeste 42 Nordeste 0 -- -- 46
2019-09-13 08:00:00 19.8 22 Nordeste 43 Este 0 -- -- 47
2019-09-13 07:00:00 19.6 17 Nordeste 33 Nordeste 0 -- -- 45
2019-09-13 06:00:00 19 12 Nordeste 24 Nordeste 0 -- -- 51
2019-09-13 05:00:00 18.3 10 Nordeste 15 Nordeste 0 -- -- 53
2019-09-13 04:00:00 18.4 7 Nordeste 19 Nordeste 0 -- -- 54
2019-09-13 03:00:00 19 9 Nordeste 16 Este 0 -- -- 52
2019-09-13 02:00:00 20.2 8 Nordeste 23 Este 0 -- -- 48
2019-09-13 01:00:00 20.6 10 Nordeste 23 Este 0 -- -- 48
2019-09-13 00:00:00 21.1 9 Este 20 Este 0 -- -- 48
2019-09-12 23:00:00 20.9 7 Nordeste 21 Nordeste 0 -- -- 54
2019-09-12 22:00:00 20.8 0 Calma 4 Noroeste 0 -- -- 48
2019-09-12 21:00:00 22.4 3 Sudoeste 11 Sudeste 0 -- -- 45
2019-09-12 20:00:00 24.8 4 Sur 25 Sudeste 0 -- -- 41
2019-09-12 19:00:00 25.1 8 Sudeste 25 Sur 0 -- -- 40
2019-09-12 18:00:00 25.5 10 Sudeste 24 Sudeste 0 -- -- 39
2019-09-12 17:00:00 26 11 Este 31 Este 0 -- -- 37
2019-09-12 16:00:00 27.3 12 Este 31 Sudeste 0 -- -- 35
2019-09-12 15:00:00 26.3 14 Este 35 Nordeste 0 -- -- 37
2019-09-12 14:00:00 25.2 15 Este 37 Nordeste 0 -- -- 39
2019-09-12 13:00:00 24.4 21 Este 42 Nordeste 0 -- -- 39
2019-09-12 12:00:00 23.1 24 Nordeste 45 Este 0 -- -- 41
2019-09-12 11:00:00 21.3 19 Nordeste 48 Nordeste 0 -- -- 45
2019-09-12 10:00:00 20.4 24 Este 49 Nordeste 0 -- -- 48
2019-09-12 09:00:00 18.9 18 Nordeste 35 Nordeste 0 -- -- 51
2019-09-12 08:00:00 16.2 12 Nordeste 21 Nordeste 0 -- -- 57
2019-09-12 07:00:00 14.6 11 Nordeste 17 Nordeste 0 -- -- 59
2019-09-12 06:00:00 14.2 5 Nordeste 12 Nordeste 0 -- -- 63
2019-09-12 05:00:00 15.1 10 Nordeste 17 Este 0 -- -- 56
2019-09-12 04:00:00 15.5 5 Nordeste 13 Norte 0 -- -- 56
2019-09-12 03:00:00 15.9 9 Nordeste 16 Norte 0 -- -- 54
2019-09-12 02:00:00 16.8 7 Nordeste 20 Nordeste 0 -- -- 52
2019-09-12 01:00:00 17.8 9 Nordeste 25 Nordeste 0 -- -- 48
2019-09-12 00:00:00 18.7 12 Nordeste 24 Este 0 -- -- 45
2019-09-11 23:00:00 19.7 11 Nordeste 30 Nordeste 0 -- -- 42
2019-09-11 22:00:00 20.7 15 Nordeste 29 Nordeste 0 -- -- 39
2019-09-11 21:00:00 21.6 13 Este 33 Este 0 -- -- 37
2019-09-11 20:00:00 23 15 Este 40 Este 0 -- -- 35
2019-09-11 19:00:00 24.3 15 Este 37 Este 0 -- -- 32
2019-09-11 18:00:00 25.4 18 Este 46 Nordeste 0 -- -- 30
2019-09-11 17:00:00 25.4 20 Nordeste 42 Este 0 -- -- 31
2019-09-11 16:00:00 24.9 16 Nordeste 39 Este 0 -- -- 32
2019-09-11 15:00:00 24.6 21 Este 47 Nordeste 0 -- -- 32
2019-09-11 14:00:00 23.2 11 Nordeste 30 Norte 0 -- -- 35
2019-09-11 13:00:00 20.6 15 Norte 32 Norte 0 -- -- 42
2019-09-11 12:00:00 19.2 18 Norte 30 Norte 0 -- -- 44
2019-09-11 11:00:00 17.5 19 Norte 46 Norte 0 -- -- 50
2019-09-11 10:00:00 15 24 Norte 48 Nordeste 0 -- -- 59
2019-09-11 09:00:00 13.7 21 Norte 49 Nordeste 0 -- -- 63
2019-09-11 08:00:00 12.6 24 Norte 50 Norte 0 -- -- 67
2019-09-11 07:00:00 12.4 25 Norte 51 Norte 0 -- -- 67
2019-09-11 06:00:00 12.5 26 Norte 48 Nordeste 0 -- -- 64
2019-09-11 05:00:00 12.9 21 Norte 40 Norte 0 -- -- 60
2019-09-11 04:00:00 12.8 21 Norte 48 Nordeste 0 -- -- 59
2019-09-11 03:00:00 12.7 22 Norte 42 Norte 0 -- -- 61
2019-09-11 02:00:00 12.8 23 Norte 41 Nordeste 0 -- -- 60
2019-09-11 01:00:00 13.3 16 Norte 41 Nordeste 0 -- -- 58
2019-09-11 00:00:00 13.5 22 Norte 40 Norte 0 -- -- 57
2019-09-10 23:00:00 14 23 Norte 40 Nordeste 0 -- -- 58
2019-09-10 22:00:00 13.6 13 Norte 39 Norte 0 -- -- 60
2019-09-10 21:00:00 12.4 20 Norte 48 Norte 0 -- -- 71
2019-09-10 20:00:00 14.2 21 Norte 41 Nordeste 0 -- -- 57
2019-09-10 19:00:00 16.7 20 Norte 41 Norte 0 -- -- 45
2019-09-10 18:00:00 18 19 Norte 44 Norte 0 -- -- 40
2019-09-10 17:00:00 17.4 22 Norte 40 Norte 0 -- -- 39
2019-09-10 16:00:00 17.8 20 Norte 42 Norte 0 -- -- 36
2019-09-10 15:00:00 17.8 19 Norte 43 Norte 0 -- -- 35
2019-09-10 14:00:00 17.5 23 Norte 46 Norte 0 -- -- 36
2019-09-10 13:00:00 16.3 20 Norte 39 Norte 0 -- -- 39
2019-09-10 12:00:00 15.1 15 Norte 40 Norte 0 -- -- 45
2019-09-10 11:00:00 14.1 21 Norte 39 Norte 0 -- -- 47
2019-09-10 10:00:00 13.3 19 Norte 39 Norte 0 -- -- 52
2019-09-10 09:00:00 13.1 19 Norte 34 Nordeste 0 -- -- 53
2019-09-10 08:00:00 13.5 16 Norte 33 Noroeste 0 -- -- 51
2019-09-10 07:00:00 13.9 9 Norte 25 Norte 0 -- -- 61
2019-09-10 06:00:00 14.1 8 Noroeste 38 Norte 0 -- -- 60
2019-09-10 05:00:00 15 19 Noroeste 44 Noroeste 0 -- -- 55
2019-09-10 04:00:00 16 20 Noroeste 45 Noroeste 0 -- -- 52
2019-09-10 03:00:00 17.1 18 Norte 45 Noroeste 0 -- -- 47
2019-09-10 02:00:00 18.1 24 Noroeste 50 Noroeste 0 -- -- 42
2019-09-10 01:00:00 19.9 15 Noroeste 35 Noroeste 0 -- -- 35
2019-09-10 00:00:00 21.2 17 Noroeste 35 Noroeste 0 -- -- 28
2019-09-09 23:00:00 22.1 16 Noroeste 28 Noroeste 0 -- -- 29
2019-09-09 22:00:00 22.7 10 Noroeste 26 Noroeste 0 -- -- 27
2019-09-09 21:00:00 23.9 10 Noroeste 32 Noroeste 0 -- -- 24
2019-09-09 20:00:00 25.2 17 Noroeste 32 Noroeste 0 -- -- 23
2019-09-09 19:00:00 26.7 12 Noroeste 31 Oeste 0 -- -- 22
2019-09-09 18:00:00 27.6 18 Sudoeste 35 Sudoeste 0 -- -- 20
2019-09-09 17:00:00 28.8 20 Oeste 37 Sudoeste 0 -- -- 19
2019-09-09 16:00:00 28.9 22 Sudoeste 39 Sudoeste 0 -- -- 18
2019-09-09 15:00:00 28.6 22 Sudoeste 37 Sudoeste 0 -- -- 19
2019-09-09 14:00:00 27.2 17 Sudoeste 33 Sudoeste 0 -- -- 26
2019-09-09 13:00:00 25.7 14 Sudoeste 23 Sudoeste 0 -- -- 30
2019-09-09 12:00:00 23.5 13 Sudoeste 19 Sudoeste 0 -- -- 36
2019-09-09 11:00:00 22 8 Sur 18 Sur 0 -- -- 38
2019-09-09 10:00:00 20 5 Sur 10 Sur 0 -- -- 40
2019-09-09 09:00:00 16.8 3 Nordeste 8 Este 0 -- -- 48
2019-09-09 08:00:00 15.2 6 Nordeste 8 Nordeste 0 -- -- 53
2019-09-09 07:00:00 15.8 0 Calma 4 Este 0 -- -- 45
2019-09-09 06:00:00 16.7 2 Sudoeste 6 Oeste 0 -- -- 44
2019-09-09 05:00:00 16.7 0 Calma 9 Este 0 -- -- 45
2019-09-09 04:00:00 19.2 6 Este 9 Este 0 -- -- 38
2019-09-09 03:00:00 19.9 5 Este 10 Este 0 -- -- 36
2019-09-09 02:00:00 21 6 Este 19 Este 0 -- -- 34
2019-09-09 01:00:00 21.3 10 Nordeste 17 Nordeste 0 -- -- 33
2019-09-09 00:00:00 21.5 8 Norte 14 Norte 0 -- -- 32
2019-09-08 23:00:00 22.2 7 Norte 14 Norte 0 -- -- 33
2019-09-08 22:00:00 23.3 11 Norte 17 Norte 0 -- -- 33
2019-09-08 21:00:00 24.8 7 Norte 18 Norte 0 -- -- 29
2019-09-08 20:00:00 27 10 Norte 19 Norte 0 -- -- 26
2019-09-08 19:00:00 27.5 4 Sudoeste 19 Sudoeste 0 -- -- 32
2019-09-08 18:00:00 27.7 9 Sur 18 Sudoeste 0 -- -- 33
2019-09-08 17:00:00 28 9 Sudoeste 24 Sudoeste 0 -- -- 35
2019-09-08 16:00:00 28.1 7 Oeste 20 Oeste 0 -- -- 35
2019-09-08 15:00:00 26.8 8 Sur 19 Sudoeste 0 -- -- 39
2019-09-08 14:00:00 25.2 8 Sudoeste 18 Sur 0 -- -- 42
2019-09-08 13:00:00 24.2 9 Sudeste 22 Sudeste 0 -- -- 45
2019-09-08 12:00:00 22.5 8 Sudeste 19 Sudeste 0 -- -- 47
2019-09-08 11:00:00 20.8 8 Nordeste 16 Este 0 -- -- 50
2019-09-08 10:00:00 19.2 7 Nordeste 15 Este 0 -- -- 49
2019-09-08 09:00:00 17.6 5 Nordeste 11 Nordeste 0 -- -- 54
2019-09-08 08:00:00 17.6 5 Nordeste 12 Nordeste 0 -- -- 53
2019-09-08 07:00:00 17.3 6 Nordeste 15 Nordeste 0 -- -- 52
2019-09-08 06:00:00 16.9 8 Nordeste 15 Nordeste 0 -- -- 49
2019-09-08 05:00:00 17.4 7 Nordeste 26 Este 0 -- -- 46
2019-09-08 04:00:00 17.5 14 Nordeste 22 Nordeste 0 -- -- 44
2019-09-08 03:00:00 18.2 12 Nordeste 31 Nordeste 0 -- -- 40
2019-09-08 02:00:00 18.7 16 Nordeste 31 Nordeste 0 -- -- 38
2019-09-08 01:00:00 19.4 15 Nordeste 33 Nordeste 0 -- -- 36
2019-09-08 00:00:00 20.4 17 Nordeste 32 Este 0 -- -- 32
2019-09-07 23:00:00 21.2 11 Nordeste 24 Este 0 -- -- 33
2019-09-07 22:00:00 22.5 10 Nordeste 16 Norte 0 -- -- 32
2019-09-07 21:00:00 23.5 3 Este 9 Sudeste 0 -- -- 37
2019-09-07 20:00:00 25.7 6 Sur 12 Sudeste 0 -- -- 33
2019-09-07 19:00:00 26.6 7 Sudeste 15 Sudeste 0 -- -- 34
2019-09-07 18:00:00 26.6 6 Sudeste 15 Sudeste 0 -- -- 34
2019-09-07 17:00:00 27.4 7 Sudeste 18 Sudeste 0 -- -- 34
2019-09-07 16:00:00 26 7 Sudeste 24 Sudeste 0 -- -- 38
2019-09-07 15:00:00 25.2 6 Este 24 Sudeste 0 -- -- 41
2019-09-07 14:00:00 23.4 12 Este 23 Nordeste 0 -- -- 44
2019-09-07 13:00:00 22.6 11 Sudeste 24 Sudeste 0 -- -- 45
2019-09-07 12:00:00 21.3 11 Este 25 Este 0 -- -- 44
2019-09-07 11:00:00 19.8 9 Este 27 Nordeste 0 -- -- 37
2019-09-07 10:00:00 17.3 13 Este 25 Este 0 -- -- 41
2019-09-07 09:00:00 16 10 Nordeste 19 Nordeste 0 -- -- 42
2019-09-07 08:00:00 14.5 10 Nordeste 17 Nordeste 0 -- -- 47
2019-09-07 07:00:00 14.6 9 Nordeste 18 Nordeste 0 -- -- 45
2019-09-07 06:00:00 14.9 10 Nordeste 22 Nordeste 0 -- -- 43
2019-09-07 05:00:00 14.7 12 Nordeste 20 Nordeste 0 -- -- 42
2019-09-07 04:00:00 15.6 14 Nordeste 33 Este 0 -- -- 34
2019-09-07 03:00:00 15.5 19 Nordeste 32 Nordeste 0 -- -- 38
2019-09-07 02:00:00 17.1 14 Nordeste 27 Nordeste 0 -- -- 37
2019-09-07 01:00:00 18.2 14 Nordeste 25 Nordeste 0 -- -- 34
2019-09-07 00:00:00 18.5 8 Nordeste 19 Nordeste 0 -- -- 32
2019-09-06 23:00:00 19.3 10 Nordeste 18 Nordeste 0 -- -- 32
2019-09-06 22:00:00 20.6 9 Nordeste 14 Norte 0 -- -- 33
2019-09-06 21:00:00 22.2 4 Este 16 Este 0 -- -- 25
2019-09-06 20:00:00 24.8 6 Este 23 Este 0 -- -- 22
2019-09-06 19:00:00 25.4 8 Sudeste 21 Este 0 -- -- 22
2019-09-06 18:00:00 25.5 6 Este 21 Sudeste 0 -- -- 23
2019-09-06 17:00:00 25.5 8 Este 21 Nordeste 0 -- -- 24
2019-09-06 16:00:00 24.9 9 Este 27 Nordeste 0 -- -- 25
2019-09-06 15:00:00 23.3 10 Sudeste 23 Sudeste 0 -- -- 27
2019-09-06 14:00:00 22 10 Nordeste 25 Este 0 -- -- 30
2019-09-06 13:00:00 20.4 11 Este 28 Nordeste 0 -- -- 32
2019-09-06 12:00:00 18.3 13 Este 26 Nordeste 0 -- -- 37
2019-09-06 11:00:00 16.3 10 Este 23 Este 0 -- -- 43
2019-09-06 10:00:00 13.8 9 Nordeste 17 Nordeste 0 -- -- 53
2019-09-06 09:00:00 11.2 9 Nordeste 14 Nordeste 0 -- -- 68
2019-09-06 08:00:00 10.1 8 Nordeste 18 Nordeste 0 -- -- 71
2019-09-06 07:00:00 10.4 9 Nordeste 18 Este 0 -- -- 61
2019-09-06 06:00:00 10.9 9 Este 21 Nordeste 0 -- -- 59
2019-09-06 05:00:00 11.4 9 Este 18 Nordeste 0 -- -- 57
2019-09-06 04:00:00 12.2 8 Este 15 Este 0 -- -- 58
2019-09-06 03:00:00 13.1 4 Este 12 Este 0 -- -- 55
2019-09-06 02:00:00 14 7 Este 21 Este 0 -- -- 53
2019-09-06 01:00:00 15.1 10 Este 26 Este 0 -- -- 50
2019-09-06 00:00:00 17.1 9 Este 33 Este 0 -- -- 45
2019-09-05 23:00:00 19 11 Este 23 Este 0 -- -- 37
2019-09-05 22:00:00 20.4 10 Nordeste 26 Este 0 -- -- 33
2019-09-05 21:00:00 21.9 16 Nordeste 31 Nordeste 0 -- -- 31
2019-09-05 20:00:00 25.2 8 Este 25 Este 0 -- -- 27
2019-09-05 19:00:00 26.5 10 Este 23 Sudeste 0 -- -- 25
2019-09-05 18:00:00 27.4 12 Este 24 Nordeste 0 -- -- 25
2019-09-05 17:00:00 27.9 9 Noroeste 28 Nordeste 0 -- -- 24
2019-09-05 16:00:00 27 12 Norte 28 Nordeste 0 -- -- 26
2019-09-05 15:00:00 26.8 13 Nordeste 24 Nordeste 0 -- -- 29
2019-09-05 14:00:00 25.4 7 Sudeste 23 Nordeste 0 -- -- 34
2019-09-05 13:00:00 24.1 7 Sudeste 20 Este 0 -- -- 36
2019-09-05 12:00:00 21.9 10 Este 19 Este 0 -- -- 39
2019-09-05 11:00:00 19.9 10 Este 25 Este 0 -- -- 42
2019-09-05 10:00:00 18.1 14 Nordeste 27 Este 0 -- -- 47
2019-09-05 09:00:00 15.6 9 Nordeste 19 Este 0 -- -- 56
2019-09-05 08:00:00 16 12 Nordeste 21 Nordeste 0 -- -- 55
2019-09-05 07:00:00 16 11 Nordeste 25 Nordeste 0 -- -- 54
2019-09-05 06:00:00 16.4 15 Nordeste 23 Nordeste 0 -- -- 55
2019-09-05 05:00:00 17.4 14 Este 26 Nordeste 0 -- -- 52
2019-09-05 04:00:00 18.8 8 Este 17 Este 0 -- -- 46
2019-09-05 03:00:00 21 12 Nordeste 27 Nordeste 0 -- -- 38
2019-09-05 02:00:00 21.4 14 Nordeste 26 Nordeste 0 -- -- 39
2019-09-05 01:00:00 22 15 Este 27 Este 0 -- -- 39
2019-09-05 00:00:00 23.9 11 Este 21 Este 0 -- -- 31
2019-09-04 23:00:00 25.3 14 Nordeste 30 Nordeste 0 -- -- 28
2019-09-04 22:00:00 26.6 13 Norte 21 Norte 0 -- -- 25
2019-09-04 21:00:00 28 9 Norte 21 Norte 0 -- -- 21
2019-09-04 20:00:00 30.4 13 Norte 25 Norte 0 -- -- 19
2019-09-04 19:00:00 31.7 10 Norte 23 Noroeste 0 -- -- 18
2019-09-04 18:00:00 32.5 8 Noroeste 27 Noroeste 0 -- -- 18
2019-09-04 17:00:00 33 6 Este 25 Norte 0 -- -- 20
2019-09-04 16:00:00 32.3 8 Norte 25 Sudoeste 0 -- -- 21
2019-09-04 15:00:00 31.5 8 Sur 22 Sudoeste 0 -- -- 24
2019-09-04 14:00:00 30.6 5 Sur 20 Sur 0 -- -- 27
2019-09-04 13:00:00 28.7 9 Sur 17 Sur 0 -- -- 30
2019-09-04 12:00:00 25.8 5 Este 14 Este 0 -- -- 34
2019-09-04 11:00:00 24 6 Este 16 Este 0 -- -- 37
2019-09-04 10:00:00 22.6 9 Este 18 Este 0 -- -- 35
2019-09-04 09:00:00 20.3 5 Nordeste 15 Nordeste 0 -- -- 39
2019-09-04 08:00:00 19 10 Nordeste 17 Este 0 -- -- 39
2019-09-04 07:00:00 19.1 9 Nordeste 16 Nordeste 0 -- -- 39
2019-09-04 06:00:00 19 6 Nordeste 10 Nordeste 0 -- -- 45
2019-09-04 05:00:00 20 2 Nordeste 8 Nordeste 0 -- -- 42
2019-09-04 04:00:00 21.8 4 Este 11 Este 0 -- -- 32
2019-09-04 03:00:00 22.1 8 Este 13 Este 0 -- -- 34
2019-09-04 02:00:00 23.1 6 Este 17 Nordeste 0 -- -- 33
2019-09-04 01:00:00 24.3 12 Nordeste 21 Nordeste 0 -- -- 33
2019-09-04 00:00:00 24.6 11 Norte 24 Norte 0 -- -- 33
2019-09-03 23:00:00 25.3 16 Nordeste 24 Norte 0 -- -- 31
2019-09-03 22:00:00 26.6 13 Norte 25 Nordeste 0 -- -- 26
2019-09-03 21:00:00 27.6 13 Norte 24 Norte 0 -- -- 25
2019-09-03 20:00:00 29.5 16 Norte 30 Nordeste 0 -- -- 25
2019-09-03 19:00:00 30.9 14 Norte 33 Norte 0 -- -- 24
2019-09-03 18:00:00 31.5 12 Norte 27 Norte 0 -- -- 25
2019-09-03 17:00:00 32.2 9 Oeste 21 Oeste 0 -- -- 26
2019-09-03 16:00:00 31.9 11 Sudoeste 23 Oeste 0 -- -- 34
2019-09-03 15:00:00 30.4 5 Oeste 19 Sudoeste 0 -- -- 38
2019-09-03 14:00:00 29 12 Sudoeste 28 Sudoeste 0 -- -- 41
2019-09-03 13:00:00 27.7 8 Sudeste 16 Sudeste 0 -- -- 45
2019-09-03 12:00:00 25.2 8 Sur 15 Este 0 -- -- 49
2019-09-03 11:00:00 23.6 5 Este 12 Nordeste 0 -- -- 53
2019-09-03 10:00:00 21.8 9 Nordeste 15 Nordeste 0 -- -- 51
2019-09-03 09:00:00 19.5 4 Este 13 Nordeste 0 -- -- 54
2019-09-03 08:00:00 17.9 9 Nordeste 14 Nordeste 0 -- -- 63
2019-09-03 07:00:00 18.4 8 Nordeste 12 Nordeste 0 -- -- 59
2019-09-03 06:00:00 19.1 6 Nordeste 14 Nordeste 0 -- -- 56
2019-09-03 05:00:00 19.9 7 Nordeste 13 Nordeste 0 -- -- 54
2019-09-03 04:00:00 20.1 9 Nordeste 22 Nordeste 0 -- -- 56
2019-09-03 03:00:00 21.1 15 Nordeste 27 Nordeste 0 -- -- 50
2019-09-03 02:00:00 21.7 8 Nordeste 22 Nordeste 0 -- -- 48
2019-09-03 01:00:00 22.6 13 Nordeste 25 Este 0 -- -- 44
2019-09-03 00:00:00 23.3 10 Nordeste 20 Nordeste 0 -- -- 46
2019-09-02 23:00:00 24.5 11 Nordeste 21 Norte 0 -- -- 44
2019-09-02 22:00:00 26.1 14 Nordeste 22 Nordeste 0 -- -- 39
2019-09-02 21:00:00 27.3 10 Norte 22 Norte 0 -- -- 38
2019-09-02 20:00:00 28.5 2 Norte 12 Nordeste 0 -- -- 38
2019-09-02 19:00:00 28.8 8 Nordeste 22 Nordeste 0 -- -- 38
2019-09-02 18:00:00 28.6 14 Nordeste 24 Nordeste 0 -- -- 40
2019-09-02 17:00:00 29.6 7 Sur 22 Este 0 -- -- 37
2019-09-02 16:00:00 29.8 6 Sudeste 18 Este 0 -- -- 37
2019-09-02 15:00:00 28.4 9 Sudeste 20 Sudeste 0 -- -- 41
2019-09-02 14:00:00 26.9 8 Este 23 Sudeste 0 -- -- 44
2019-09-02 13:00:00 25.6 11 Sudeste 21 Este 0 -- -- 47
2019-09-02 12:00:00 24 11 Nordeste 28 Este 0 -- -- 51
2019-09-02 11:00:00 22.5 13 Este 30 Nordeste 0 -- -- 51
2019-09-02 10:00:00 20.8 15 Este 32 Nordeste 0 -- -- 56
2019-09-02 09:00:00 19.5 12 Nordeste 25 Nordeste 0 -- -- 61
2019-09-02 08:00:00 18.5 13 Nordeste 22 Nordeste 0 -- -- 65
2019-09-02 07:00:00 19 13 Nordeste 25 Nordeste 0 -- -- 65
2019-09-02 06:00:00 19.4 10 Nordeste 26 Nordeste 0 -- -- 64
2019-09-02 05:00:00 19.7 17 Nordeste 30 Nordeste 0 -- -- 63
2019-09-02 04:00:00 19.9 19 Nordeste 37 Nordeste 0 -- -- 63
2019-09-02 03:00:00 20.2 17 Nordeste 35 Nordeste 0 -- -- 63
2019-09-02 02:00:00 20.7 18 Nordeste 41 Nordeste 0 -- -- 62
2019-09-02 01:00:00 21.4 17 Nordeste 35 Este 0 -- -- 64
2019-09-02 00:00:00 23.8 12 Este 23 Este 0 -- -- 51
2019-09-01 23:00:00 25 8 Este 16 Nordeste 0 -- -- 45
2019-09-01 22:00:00 25.5 8 Nordeste 19 Norte 0 -- -- 43
2019-09-01 21:00:00 26.9 9 Norte 25 Norte 0 -- -- 40
2019-09-01 20:00:00 28.3 12 Norte 24 Norte 0 -- -- 37
2019-09-01 19:00:00 28.6 14 Norte 31 Norte 0 -- -- 36
2019-09-01 18:00:00 29.5 14 Norte 27 Norte 0 -- -- 34
2019-09-01 17:00:00 29.7 9 Norte 23 Norte 0 -- -- 35
2019-09-01 16:00:00 28.4 12 Norte 32 Norte 0 -- -- 38
2019-09-01 15:00:00 32 19 Sudoeste 36 Sudoeste 0 -- -- 28
2019-09-01 14:00:00 31.8 14 Sudoeste 30 Sudoeste 0 -- -- 29
2019-09-01 13:00:00 30.2 10 Sudoeste 22 Sur 0 -- -- 31
2019-09-01 12:00:00 28.3 4 Sudoeste 11 Este 0 -- -- 35
2019-09-01 11:00:00 25.9 6 Sudeste 12 Sudeste 0 -- -- 38
2019-09-01 10:00:00 24 7 Este 13 Sudeste 0 -- -- 42
2019-09-01 09:00:00 22.3 5 Este 9 Norte 0 -- -- 45
2019-09-01 08:00:00 21.4 4 Nordeste 12 Nordeste 0 -- -- 46
2019-09-01 07:00:00 20.6 8 Nordeste 12 Nordeste 0 -- -- 50
2019-09-01 06:00:00 21.2 4 Nordeste 9 Este 0 -- -- 46
2019-09-01 05:00:00 22.7 5 Nordeste 13 Nordeste 0 -- -- 43
2019-09-01 04:00:00 22.5 5 Norte 11 Nordeste 0 -- -- 45
2019-09-01 03:00:00 21.4 2 Norte 5 Nordeste 0 -- -- 47
2019-09-01 02:00:00 22.2 0 Calma 6 Nordeste 0 -- -- 46
2019-09-01 01:00:00 22.8 4 Este 6 Nordeste 0 -- -- 45
2019-09-01 00:00:00 23.8 3 Nordeste 6 Nordeste 0 -- -- 42
2019-08-31 23:00:00 25 3 Este 7 Nordeste 0 -- -- 39
2019-08-31 22:00:00 26.7 3 Nordeste 6 Norte 0 -- -- 35
2019-08-31 21:00:00 27.9 3 Norte 8 Noroeste 0 -- -- 32
2019-08-31 20:00:00 28.5 4 Noroeste 17 Noroeste 0 -- -- 30
2019-08-31 19:00:00 28.7 12 Noroeste 26 Noroeste 0 -- -- 33
2019-08-31 18:00:00 31.1 7 Sudoeste 17 Norte 0 -- -- 28
2019-08-31 17:00:00 29.7 10 Norte 28 Norte 0 -- -- 30
2019-08-31 16:00:00 31.8 10 Sudoeste 24 Sudoeste 0 -- -- 28
2019-08-31 15:00:00 31.1 10 Sur 26 Sur 0 -- -- 30
2019-08-31 14:00:00 29.6 7 Sur 18 Sur 0 -- -- 33
2019-08-31 13:00:00 28 9 Sur 15 Oeste 0 -- -- 35
2019-08-31 12:00:00 25.7 4 Sur 17 Sudoeste 0 -- -- 42
2019-08-31 11:00:00 24.1 7 Sudoeste 12 Sudoeste 0 -- -- 46
2019-08-31 10:00:00 22.2 2 Nordeste 6 Nordeste 0 -- -- 51
2019-08-31 09:00:00 19.8 3 Nordeste 10 Este 0 -- -- 56
2019-08-31 08:00:00 17.8 5 Nordeste 8 Nordeste 0 -- -- 58
2019-08-31 07:00:00 18 5 Nordeste 9 Nordeste 0 -- -- 59
2019-08-31 06:00:00 18.1 5 Nordeste 11 Nordeste 0 -- -- 61
2019-08-31 05:00:00 18.7 5 Nordeste 9 Nordeste 0 -- -- 59
2019-08-31 04:00:00 19.7 4 Nordeste 14 Norte 0 -- -- 55
2019-08-31 03:00:00 19.7 7 Nordeste 17 Nordeste 0 -- -- 57
2019-08-31 02:00:00 20.1 6 Nordeste 15 Norte 0 -- -- 57
2019-08-31 01:00:00 20.5 7 Nordeste 18 Este 0 -- -- 60
2019-08-31 00:00:00 21.4 13 Nordeste 24 Nordeste 0 -- -- 58
2019-08-30 23:00:00 22.5 7 Nordeste 14 Nordeste 0 -- -- 55
2019-08-30 22:00:00 23.1 7 Noroeste 21 Norte 0 -- -- 49
2019-08-30 21:00:00 22.6 9 Este 24 Sudeste 0 -- -- 50
2019-08-30 20:00:00 25.5 11 Sudeste 34 Norte 0 -- -- 44
2019-08-30 19:00:00 26.5 13 Norte 30 Norte 0 -- -- 39
2019-08-30 18:00:00 28.9 12 Noroeste 43 Noroeste 0 -- -- 34
2019-08-30 17:00:00 32.2 7 Oeste 18 Sudoeste 0 -- -- 27
2019-08-30 16:00:00 32.9 11 Sudoeste 24 Sur 0 -- -- 27
2019-08-30 15:00:00 32.4 10 Sudoeste 24 Sur 0 -- -- 31
2019-08-30 14:00:00 31.6 7 Sur 19 Sudeste 0 -- -- 34
2019-08-30 13:00:00 29.8 9 Sudeste 21 Este 0 -- -- 35
2019-08-30 12:00:00 27.8 7 Este 14 Nordeste 0 -- -- 39
2019-08-30 11:00:00 25.6 7 Este 18 Sudeste 0 -- -- 44
2019-08-30 10:00:00 24.2 7 Este 16 Este 0 -- -- 44
2019-08-30 09:00:00 21.5 3 Nordeste 10 Nordeste 0 -- -- 52
2019-08-30 08:00:00 20 5 Nordeste 14 Nordeste 0 -- -- 56
2019-08-30 07:00:00 19.4 10 Nordeste 18 Nordeste 0 -- -- 58
2019-08-30 06:00:00 20.4 10 Nordeste 20 Nordeste 0 -- -- 59
2019-08-30 05:00:00 21.1 10 Nordeste 18 Nordeste 0 -- -- 51
2019-08-30 04:00:00 20.9 7 Nordeste 17 Nordeste 0 -- -- 54
2019-08-30 03:00:00 23.1 9 Este 14 Nordeste 0 -- -- 44
2019-08-30 02:00:00 22.8 6 Nordeste 15 Nordeste 0 -- -- 47
2019-08-30 01:00:00 23.5 6 Nordeste 10 Nordeste 0 -- -- 45
2019-08-30 00:00:00 24.1 3 Este 8 Nordeste 0 -- -- 43
2019-08-29 23:00:00 25 6 Nordeste 11 Este 0 -- -- 42
2019-08-29 22:00:00 26.2 4 Este 6 Este 0 -- -- 38
2019-08-29 21:00:00 28.9 4 Sudeste 9 Sudeste 0 -- -- 33
2019-08-29 20:00:00 30.1 3 Sur 13 Sudoeste 0 -- -- 30
2019-08-29 19:00:00 30.5 9 Sur 18 Sudoeste 0 -- -- 29
2019-08-29 18:00:00 32.4 11 Sur 29 Sudoeste 0 -- -- 28
2019-08-29 17:00:00 32.4 8 Sur 25 Sudoeste 0 -- -- 28
2019-08-29 16:00:00 32 7 Sur 23 Sur 0 -- -- 29
2019-08-29 15:00:00 31.1 6 Sudoeste 40 Sur 0 -- -- 30
2019-08-29 14:00:00 30.3 12 Sudoeste 24 Sudoeste 0 -- -- 32
2019-08-29 13:00:00 29.1 8 Sur 16 Sudeste 0 -- -- 34
2019-08-29 12:00:00 26.9 8 Sudeste 15 Sudeste 0 -- -- 39
2019-08-29 11:00:00 25 8 Este 15 Sudeste 0 -- -- 43
2019-08-29 10:00:00 23.1 8 Nordeste 18 Nordeste 0 -- -- 47
2019-08-29 09:00:00 20.1 11 Nordeste 17 Nordeste 0 -- -- 55
2019-08-29 08:00:00 18.8 10 Nordeste 16 Nordeste 0 -- -- 60
2019-08-29 07:00:00 18.8 8 Nordeste 13 Nordeste 0 -- -- 58
2019-08-29 06:00:00 19.4 8 Nordeste 14 Nordeste 0 -- -- 56
2019-08-29 05:00:00 20.1 6 Nordeste 13 Nordeste 0 -- -- 54
2019-08-29 04:00:00 20.6 5 Nordeste 8 Nordeste 0 -- -- 52
2019-08-29 03:00:00 21.3 4 Nordeste 12 Norte 0 -- -- 50
2019-08-29 02:00:00 21.5 6 Nordeste 11 Nordeste 0 -- -- 50
2019-08-29 01:00:00 22.6 7 Nordeste 12 Nordeste 0 -- -- 47
2019-08-29 00:00:00 22.8 6 Nordeste 13 Nordeste 0 -- -- 48
2019-08-28 23:00:00 23.4 6 Nordeste 9 Este 0 -- -- 46
2019-08-28 22:00:00 25.2 5 Sudeste 10 Sudeste 0 -- -- 40
2019-08-28 21:00:00 26.9 5 Sudeste 11 Sudeste 0 -- -- 36
2019-08-28 20:00:00 29.1 9 Sur 19 Sudoeste 0 -- -- 33
2019-08-28 19:00:00 29.7 9 Sur 22 Sur 0 -- -- 32
2019-08-28 18:00:00 30.2 10 Sudoeste 25 Sudoeste 0 -- -- 31
2019-08-28 17:00:00 30.2 8 Sudeste 27 Sur 0 -- -- 31
2019-08-28 16:00:00 29.8 9 Sudeste 18 Sudeste 0 -- -- 32
2019-08-28 15:00:00 28.6 11 Este 24 Sur 0 -- -- 34
2019-08-28 14:00:00 28.1 9 Sur 15 Sudeste 0 -- -- 36
2019-08-28 13:00:00 26.7 9 Sur 15 Sudoeste 0 -- -- 40
2019-08-28 12:00:00 24.8 7 Sur 15 Sudeste 0 -- -- 48
2019-08-28 11:00:00 23.3 5 Sudeste 10 Sudeste 0 -- -- 52
2019-08-28 10:00:00 20.9 4 Nordeste 11 Nordeste 0 -- -- 58
2019-08-28 09:00:00 18.5 6 Nordeste 11 Este 0 -- -- 64
2019-08-28 08:00:00 16.3 6 Nordeste 10 Nordeste 0 -- -- 70
2019-08-28 07:00:00 16.4 5 Nordeste 11 Este 0 -- -- 68
2019-08-28 06:00:00 16.9 5 Nordeste 14 Nordeste 0 -- -- 67
2019-08-28 05:00:00 17.8 8 Nordeste 13 Nordeste 0 -- -- 61
2019-08-28 04:00:00 18.2 6 Nordeste 14 Nordeste 0 -- -- 60
2019-08-28 03:00:00 18.6 7 Nordeste 13 Nordeste 0 -- -- 59
2019-08-28 02:00:00 19.5 8 Nordeste 13 Nordeste 0 -- -- 55
2019-08-28 01:00:00 19.4 6 Nordeste 13 Nordeste 0 -- -- 57
2019-08-28 00:00:00 20.2 3 Nordeste 11 Nordeste 0 -- -- 54
2019-08-27 23:00:00 21.1 8 Nordeste 12 Nordeste 0 -- -- 52
2019-08-27 22:00:00 22.4 3 Norte 8 Norte 0 -- -- 49
2019-08-27 21:00:00 24.8 3 Norte 9 Nordeste 0 -- -- 45
2019-08-27 20:00:00 26.2 5 Nordeste 15 Norte 0 -- -- 42
2019-08-27 19:00:00 26 5 Oeste 20 Oeste 0 -- -- 43
2019-08-27 18:00:00 25.5 9 Noroeste 19 Noroeste 0 -- -- 43
2019-08-27 17:00:00 24.8 3 Sudeste 12 Este 0 -- -- 45
2019-08-27 16:00:00 24.1 7 Sudeste 15 Este 0 -- -- 47
2019-08-27 15:00:00 23.9 7 Sur 18 Sur 0 -- -- 48
2019-08-27 14:00:00 23.6 9 Sur 20 Sudoeste 0 -- -- 50
2019-08-27 13:00:00 22.1 8 Sur 15 Sur 0 -- -- 56
2019-08-27 12:00:00 19.9 4 Sudeste 22 Sur 0 -- -- 62
2019-08-27 11:00:00 18.6 3 Sudoeste 15 Sudeste 0 -- -- 67
2019-08-27 10:00:00 17.5 7 Sudeste 12 Este 0 -- -- 69
2019-08-27 09:00:00 15.8 3 Nordeste 10 Norte 0 -- -- 75
2019-08-27 08:00:00 14.3 5 Norte 15 Nordeste 0 -- -- 80
2019-08-27 07:00:00 14.5 7 Nordeste 14 Nordeste 0 -- -- 80
2019-08-27 06:00:00 15 6 Nordeste 14 Nordeste 0 -- -- 80
2019-08-27 05:00:00 14.9 8 Nordeste 20 Nordeste 0 -- -- 81
2019-08-27 04:00:00 14.7 10 Norte 18 Norte 0 -- -- 85
2019-08-27 03:00:00 14.6 4 Norte 12 Sudeste 0 -- -- 89
2019-08-27 02:00:00 15.1 4 Sudoeste 10 Oeste 0 -- -- 88
2019-08-27 01:00:00 15.7 6 Este 18 Este 0 -- -- 85
2019-08-27 00:00:00 16.4 8 Este 25 Nordeste 0.4 -- -- 81
2019-08-26 23:00:00 17 11 Nordeste 24 Noroeste 0 -- -- 78
2019-08-26 22:00:00 16.7 9 Noroeste 27 Noroeste 0.8 -- -- 77
2019-08-26 21:00:00 17.6 14 Nordeste 28 Nordeste 0.6 -- -- 77
2019-08-26 20:00:00 21.4 11 Noroeste 25 Este 0 -- -- 61
2019-08-26 19:00:00 23.1 6 Este 24 Sudeste 0 -- -- 62
2019-08-26 18:00:00 24.5 13 Este 36 Sudeste 0 -- -- 53
2019-08-26 17:00:00 27.3 8 Sudeste 16 Sudeste 0 -- -- 42
2019-08-26 16:00:00 26.7 5 Este 22 Sudeste 0 -- -- 45
2019-08-26 15:00:00 25.9 11 Este 34 Este 0 -- -- 49
2019-08-26 14:00:00 24.9 10 Este 30 Este 0 -- -- 52
2019-08-26 13:00:00 23.8 12 Sudeste 26 Este 0 -- -- 54
2019-08-26 12:00:00 22.5 9 Este 33 Nordeste 0 -- -- 56
2019-08-26 11:00:00 20.5 12 Este 24 Nordeste 0 -- -- 60
2019-08-26 10:00:00 17.5 11 Nordeste 24 Nordeste 0 -- -- 80
2019-08-26 09:00:00 16.3 10 Nordeste 25 Nordeste 0 -- -- 85
2019-08-26 08:00:00 16.9 13 Nordeste 27 Nordeste 3 -- -- 77
2019-08-26 07:00:00 20.5 12 Este 23 Sudeste 0 -- -- 50
2019-08-26 06:00:00 21.1 12 Este 26 Este 0 -- -- 52
2019-08-26 05:00:00 21.2 12 Este 29 Sudeste 0 -- -- 53
2019-08-26 04:00:00 21.4 12 Este 32 Este 0 -- -- 52
2019-08-26 03:00:00 21.4 8 Este 18 Este 0.6 -- -- 54
2019-08-26 02:00:00 22.8 10 Sudeste 21 Sudeste 0 -- -- 53
2019-08-26 01:00:00 23.2 10 Sudeste 18 Sudeste 0 -- -- 46
2019-08-26 00:00:00 22.8 3 Este 22 Norte 0.4 -- -- 49
2019-08-25 23:00:00 25.9 2 Noroeste 18 Sudoeste 0 -- -- 31
2019-08-25 22:00:00 26.5 0 Calma 32 Sur 0 -- -- 31
2019-08-25 21:00:00 27.8 12 Sur 37 Sudoeste 0 -- -- 32
2019-08-25 20:00:00 29 7 Sur 23 Sur 0 -- -- 29
2019-08-25 19:00:00 29.9 13 Sur 30 Sur 0 -- -- 28
2019-08-25 18:00:00 30.5 13 Sur 25 Sur 0 -- -- 27
2019-08-25 17:00:00 30.9 11 Sudeste 29 Sudeste 0 -- -- 26
2019-08-25 16:00:00 31.6 12 Sudeste 29 Sudeste 0 -- -- 27
2019-08-25 15:00:00 30.6 10 Sudeste 25 Sudeste 0 -- -- 32
2019-08-25 14:00:00 29 11 Este 23 Sudeste 0 -- -- 35
2019-08-25 13:00:00 27.6 10 Este 27 Este 0 -- -- 38
2019-08-25 12:00:00 25.4 11 Este 25 Este 0 -- -- 40
2019-08-25 11:00:00 24.6 12 Este 25 Sudeste 0 -- -- 43
2019-08-25 10:00:00 23.6 11 Este 24 Este 0 -- -- 45
2019-08-25 09:00:00 22.4 13 Este 25 Este 0 -- -- 51
2019-08-25 08:00:00 20.6 10 Nordeste 20 Nordeste 0 -- -- 56
2019-08-25 07:00:00 20.2 7 Nordeste 16 Nordeste 0 -- -- 54
2019-08-25 06:00:00 20.8 10 Nordeste 19 Nordeste 0 -- -- 51
2019-08-25 05:00:00 21.3 9 Nordeste 16 Nordeste 0 -- -- 49
2019-08-25 04:00:00 21.7 8 Nordeste 18 Norte 0 -- -- 44
2019-08-25 03:00:00 22.7 6 Este 25 Este 0 -- -- 37
2019-08-25 02:00:00 23.6 6 Nordeste 13 Nordeste 0 -- -- 31
2019-08-25 01:00:00 23.5 4 Nordeste 11 Nordeste 0 -- -- 32
2019-08-25 00:00:00 23.7 5 Nordeste 7 Nordeste 0 -- -- 32
2019-08-24 23:00:00 24.8 0 Calma 4 Sudoeste 0 -- -- 29
2019-08-24 22:00:00 26.8 4 Sudoeste 9 Sur 0 -- -- 25
2019-08-24 21:00:00 29.2 5 Sur 15 Sur 0 -- -- 23
2019-08-24 20:00:00 31.9 10 Sur 18 Sur 0 -- -- 21
2019-08-24 19:00:00 32.3 9 Sur 24 Sudeste 0 -- -- 21
2019-08-24 18:00:00 32.8 10 Sur 23 Sur 0 -- -- 21
2019-08-24 17:00:00 32.7 11 Sudeste 22 Sur 0 -- -- 21
2019-08-24 16:00:00 32.6 8 Sur 23 Sudoeste 0 -- -- 21
2019-08-24 15:00:00 31.6 8 Sudoeste 25 Sur 0 -- -- 24
2019-08-24 14:00:00 30 11 Sur 20 Sur 0 -- -- 26
2019-08-24 13:00:00 27.9 8 Sudeste 17 Sudeste 0 -- -- 31
2019-08-24 12:00:00 26 6 Sur 19 Este 0 -- -- 35
2019-08-24 11:00:00 24.4 8 Sudeste 19 Sudeste 0 -- -- 39
2019-08-24 10:00:00 23.2 7 Este 15 Este 0 -- -- 43
2019-08-24 09:00:00 20.1 6 Este 12 Nordeste 0 -- -- 46
2019-08-24 08:00:00 18.2 5 Nordeste 12 Nordeste 0 -- -- 44
2019-08-24 07:00:00 18.8 5 Nordeste 14 Nordeste 0 -- -- 42
2019-08-24 06:00:00 19.4 8 Nordeste 17 Norte 0 -- -- 41
2019-08-24 05:00:00 19.5 6 Nordeste 14 Nordeste 0 -- -- 41
2019-08-24 04:00:00 21.2 4 Este 17 Sudeste 0 -- -- 36
2019-08-24 03:00:00 21.4 7 Sudeste 15 Sudeste 0 -- -- 33
2019-08-24 02:00:00 21.7 5 Nordeste 11 Nordeste 0 -- -- 35
2019-08-24 01:00:00 23 7 Nordeste 15 Nordeste 0 -- -- 32
2019-08-24 00:00:00 23.2 8 Nordeste 13 Nordeste 0 -- -- 33
2019-08-23 23:00:00 24.6 2 Sudoeste 6 Sur 0 -- -- 28
2019-08-23 22:00:00 26.5 4 Sudeste 6 Sur 0 -- -- 26
2019-08-23 21:00:00 28.2 4 Sur 13 Sur 0 -- -- 23
2019-08-23 20:00:00 30.5 8 Sur 19 Sudeste 0 -- -- 22
2019-08-23 19:00:00 31.1 8 Sur 25 Sur 0 -- -- 22
2019-08-23 18:00:00 31.5 9 Sur 25 Sur 0 -- -- 22
2019-08-23 17:00:00 31.5 9 Este 22 Sudeste 0 -- -- 23
2019-08-23 16:00:00 30.9 7 Sudoeste 22 Sur 0 -- -- 25
2019-08-23 15:00:00 29.9 9 Sur 19 Sudeste 0 -- -- 26
2019-08-23 14:00:00 28.6 10 Sudoeste 16 Sudeste 0 -- -- 31
2019-08-23 13:00:00 26.8 5 Este 16 Sur 0 -- -- 33
2019-08-23 12:00:00 25.3 7 Este 16 Sudeste 0 -- -- 36
2019-08-23 11:00:00 24.3 5 Sudeste 16 Este 0 -- -- 37
2019-08-23 10:00:00 22.6 9 Este 17 Este 0 -- -- 46
2019-08-23 09:00:00 20 8 Nordeste 14 Nordeste 0 -- -- 51
2019-08-23 08:00:00 18.5 8 Nordeste 14 Nordeste 0 -- -- 50
2019-08-23 07:00:00 18.3 8 Nordeste 16 Nordeste 0 -- -- 45
2019-08-23 06:00:00 19.1 7 Nordeste 14 Nordeste 0 -- -- 49
2019-08-23 05:00:00 19.3 5 Nordeste 10 Nordeste 0 -- -- 41
2019-08-23 04:00:00 19.7 8 Nordeste 16 Nordeste 0 -- -- 42
2019-08-23 03:00:00 20 6 Nordeste 14 Nordeste 0 -- -- 36
2019-08-23 02:00:00 20.7 6 Nordeste 18 Este 0 -- -- 34
2019-08-23 01:00:00 22.5 10 Nordeste 16 Nordeste 0 -- -- 31
2019-08-23 00:00:00 22.4 6 Nordeste 10 Nordeste 0 -- -- 33